createdAt,value
2023-03-05T00:01:23.063Z,97965.44
2023-03-05T00:03:52.524Z,97961.91
2023-03-05T00:06:20.941Z,97964.34
2023-03-05T00:08:49.150Z,97949.16
2023-03-05T00:11:16.875Z,97942.00
2023-03-05T00:13:44.180Z,97939.81
2023-03-05T00:16:14.594Z,97937.59
2023-03-05T00:18:42.244Z,97927.63
2023-03-05T00:21:25.523Z,97928.13
2023-03-05T00:23:54.015Z,97928.00
2023-03-05T00:26:23.448Z,97909.88
2023-03-05T00:28:52.002Z,97917.59
2023-03-05T00:31:22.265Z,97907.81
2023-03-05T00:34:02.583Z,97900.81
2023-03-05T00:36:30.090Z,97903.28
2023-03-05T00:38:57.530Z,97896.72
2023-03-05T00:41:24.733Z,97886.44
2023-03-05T00:43:51.744Z,97903.13
2023-03-05T00:46:18.956Z,97902.16
2023-03-05T00:48:46.099Z,97887.63
2023-03-05T00:51:13.502Z,97884.75
2023-03-05T00:53:40.484Z,97877.22
2023-03-05T00:56:07.698Z,97876.25
2023-03-05T00:58:34.757Z,97872.53
2023-03-05T01:01:03.000Z,97874.16
2023-03-05T01:03:31.695Z,97868.13
2023-03-05T01:05:59.344Z,97865.38
2023-03-05T01:08:27.203Z,97861.28
2023-03-05T01:10:54.176Z,97853.59
2023-03-05T01:13:21.684Z,97856.88
2023-03-05T01:15:51.092Z,97849.88
2023-03-05T01:18:19.766Z,97849.72
2023-03-05T01:20:47.496Z,97845.63
2023-03-05T01:23:15.178Z,97842.75
2023-03-05T01:25:42.339Z,97846.13
2023-03-05T01:28:09.453Z,97836.69
2023-03-05T01:30:36.762Z,97836.03
2023-03-05T01:33:04.210Z,97833.44
2023-03-05T01:35:31.292Z,97838.47
2023-03-05T01:37:58.252Z,97824.53
2023-03-05T01:40:27.476Z,97813.31
2023-03-05T01:43:20.259Z,97824.63
2023-03-05T01:46:11.986Z,97824.63
2023-03-05T01:48:40.909Z,97810.75
2023-03-05T01:51:08.322Z,97811.09
2023-03-05T01:53:35.322Z,97809.88
2023-03-05T01:56:02.440Z,97813.69
2023-03-05T01:58:29.843Z,97800.94
2023-03-05T02:00:56.915Z,97797.34
2023-03-05T02:03:25.425Z,97799.16
2023-03-05T02:05:52.388Z,97797.22
2023-03-05T02:08:21.863Z,97795.44
2023-03-05T02:10:56.648Z,97791.03
2023-03-05T02:13:27.942Z,97786.94
2023-03-05T02:15:58.419Z,97791.84
2023-03-05T02:18:25.527Z,97779.28
2023-03-05T02:20:58.654Z,97777.19
2023-03-05T02:23:29.445Z,97770.50
2023-03-05T02:25:57.230Z,97776.38
2023-03-05T02:28:47.099Z,97772.13
2023-03-05T02:31:17.446Z,97775.25
2023-03-05T02:33:45.107Z,97768.56
2023-03-05T02:36:12.408Z,97777.03
2023-03-05T02:38:42.973Z,97766.59
2023-03-05T02:41:10.545Z,97757.28
2023-03-05T02:43:38.680Z,97757.81
2023-03-05T02:46:06.174Z,97750.97
2023-03-05T02:48:33.390Z,97749.84
2023-03-05T02:51:02.861Z,97753.13
2023-03-05T02:53:29.938Z,97736.66
2023-03-05T02:55:56.971Z,97733.25
2023-03-05T02:58:24.133Z,97738.97
2023-03-05T03:00:51.082Z,97741.44
2023-03-05T03:03:18.154Z,97737.00
2023-03-05T03:05:45.237Z,97727.88
2023-03-05T03:08:12.254Z,97731.97
2023-03-05T03:10:39.272Z,97726.91
2023-03-05T03:13:06.338Z,97728.69
2023-03-05T03:15:33.403Z,97725.25
2023-03-05T03:18:00.735Z,97721.69
2023-03-05T03:20:28.134Z,97720.88
2023-03-05T03:22:55.364Z,97722.50
2023-03-05T03:25:23.339Z,97718.75
2023-03-05T03:27:50.336Z,97709.97
2023-03-05T03:30:17.533Z,97708.34
2023-03-05T03:32:44.980Z,97708.84
2023-03-05T03:35:12.984Z,97710.94
2023-03-05T03:37:40.508Z,97706.41
2023-03-05T03:40:08.365Z,97703.44
2023-03-05T03:42:35.350Z,97709.16
2023-03-05T03:45:02.610Z,97708.34
2023-03-05T03:47:31.556Z,97705.59
2023-03-05T03:49:59.206Z,97706.91
2023-03-05T03:52:26.728Z,97699.09
2023-03-05T03:54:55.842Z,97693.88
2023-03-05T03:57:23.006Z,97690.97
2023-03-05T03:59:51.130Z,97692.63
2023-03-05T04:02:18.346Z,97686.28
2023-03-05T04:04:45.397Z,97686.94
2023-03-05T04:07:12.741Z,97685.97
2023-03-05T04:09:40.016Z,97682.06
2023-03-05T04:12:07.321Z,97677.81
2023-03-05T04:14:34.534Z,97686.00
2023-03-05T04:17:01.609Z,97686.00
2023-03-05T04:19:30.919Z,97678.53
2023-03-05T04:21:59.237Z,97681.81
2023-03-05T04:24:26.495Z,97678.88
2023-03-05T04:26:53.596Z,97676.63
2023-03-05T04:29:21.097Z,97678.94
2023-03-05T04:31:48.170Z,97666.72
2023-03-05T04:34:15.194Z,97677.50
2023-03-05T04:36:42.255Z,97673.25
2023-03-05T04:39:09.281Z,97670.97
2023-03-05T04:41:36.500Z,97666.59
2023-03-05T04:44:03.566Z,97673.63
2023-03-05T04:46:30.728Z,97672.38
2023-03-05T04:48:58.374Z,97669.59
2023-03-05T04:51:25.436Z,97675.97
2023-03-05T04:53:52.357Z,97671.28
2023-03-05T04:56:19.362Z,97664.75
2023-03-05T04:58:46.345Z,97668.53
2023-03-05T05:01:13.710Z,97663.47
2023-03-05T05:03:40.938Z,97663.50
2023-03-05T05:06:08.294Z,97658.63
2023-03-05T05:08:35.383Z,97672.84
2023-03-05T05:11:08.140Z,97666.00
2023-03-05T05:13:35.638Z,97663.09
2023-03-05T05:16:06.110Z,97663.88
2023-03-05T05:18:33.280Z,97662.28
2023-03-05T05:21:00.305Z,97658.69
2023-03-05T05:23:27.989Z,97650.03
2023-03-05T05:26:00.432Z,97659.19
2023-03-05T05:28:27.939Z,97651.50
2023-03-05T05:30:55.700Z,97652.81
2023-03-05T05:33:23.462Z,97648.53
2023-03-05T05:35:50.600Z,97655.53
2023-03-05T05:38:17.756Z,97645.53
2023-03-05T05:40:44.784Z,97647.97
2023-03-05T05:43:11.823Z,97642.56
2023-03-05T05:45:39.331Z,97656.59
2023-03-05T05:48:07.078Z,97651.88
2023-03-05T05:50:34.114Z,97650.53
2023-03-05T05:53:01.129Z,97650.06
2023-03-05T05:55:28.255Z,97646.28
2023-03-05T05:57:55.224Z,97648.19
2023-03-05T06:00:22.545Z,97634.44
2023-03-05T06:02:49.654Z,97647.50
2023-03-05T06:05:19.652Z,97642.19
2023-03-05T06:07:46.726Z,97637.69
2023-03-05T06:10:13.983Z,97631.78
2023-03-05T06:12:41.097Z,97636.41
2023-03-05T06:15:09.472Z,97636.84
2023-03-05T06:17:44.899Z,97635.63
2023-03-05T06:20:16.311Z,97641.44
2023-03-05T06:22:44.284Z,97624.19
2023-03-05T06:25:12.474Z,97634.88
2023-03-05T06:27:40.312Z,97633.81
2023-03-05T06:30:09.053Z,97631.00
2023-03-05T06:33:06.459Z,97630.91
2023-03-05T06:35:34.036Z,97621.28
2023-03-05T06:38:01.081Z,97631.84
2023-03-05T06:40:28.051Z,97635.03
2023-03-05T06:42:55.300Z,97623.00
2023-03-05T06:45:22.296Z,97633.03
2023-03-05T06:47:49.495Z,97628.16
2023-03-05T06:50:16.602Z,97633.78
2023-03-05T06:52:43.692Z,97627.44
2023-03-05T06:55:10.814Z,97635.00
2023-03-05T06:57:38.075Z,97626.47
2023-03-05T07:00:11.910Z,97625.09
2023-03-05T07:02:42.345Z,97626.69
2023-03-05T07:05:09.750Z,97626.56
2023-03-05T07:07:36.760Z,97624.91
2023-03-05T07:10:08.013Z,97629.97
2023-03-05T07:12:36.484Z,97634.34
2023-03-05T07:15:03.690Z,97637.44
2023-03-05T07:17:31.244Z,97633.66
2023-03-05T07:19:58.141Z,97641.31
2023-03-05T07:22:25.142Z,97631.94
2023-03-05T07:24:52.263Z,97640.72
2023-03-05T07:27:19.188Z,97637.53
2023-03-05T07:29:46.171Z,97647.78
2023-03-05T07:32:13.224Z,97635.03
2023-03-05T07:34:40.315Z,97649.59
2023-03-05T07:37:07.346Z,97639.16
2023-03-05T07:39:34.486Z,97645.44
2023-03-05T07:42:01.528Z,97647.00
2023-03-05T07:44:28.844Z,97648.63
2023-03-05T07:46:58.465Z,97649.31
2023-03-05T07:49:27.884Z,97654.38
2023-03-05T07:51:54.798Z,97656.34
2023-03-05T07:54:21.970Z,97656.97
2023-03-05T07:56:49.106Z,97653.72
2023-03-05T07:59:16.118Z,97658.38
2023-03-05T08:01:43.417Z,97659.13
2023-03-05T08:04:11.165Z,97671.22
2023-03-05T08:06:42.305Z,97666.31
2023-03-05T08:09:09.565Z,97670.19
2023-03-05T08:11:42.615Z,97672.75
2023-03-05T08:14:10.560Z,97676.22
2023-03-05T08:16:39.409Z,97682.78
2023-03-05T08:19:06.691Z,97672.03
2023-03-05T08:21:35.902Z,97677.59
2023-03-05T08:24:08.439Z,97674.97
2023-03-05T08:26:41.271Z,97675.81
2023-03-05T08:29:09.787Z,97670.56
2023-03-05T08:31:37.846Z,97676.25
2023-03-05T08:34:06.659Z,97677.06
2023-03-05T08:36:33.917Z,97672.66
2023-03-05T08:39:01.112Z,97676.56
2023-03-05T08:41:28.171Z,97678.34
2023-03-05T08:43:55.551Z,97677.84
2023-03-05T08:46:22.592Z,97677.63
2023-03-05T08:48:51.857Z,97672.91
2023-03-05T08:51:23.987Z,97673.78
2023-03-05T08:53:58.155Z,97673.41
2023-03-05T08:56:30.243Z,97678.19
2023-03-05T08:58:57.768Z,97678.94
2023-03-05T09:01:28.081Z,97674.16
2023-03-05T09:03:58.663Z,97681.59
2023-03-05T09:06:53.214Z,97686.47
2023-03-05T09:09:50.398Z,97684.69
2023-03-05T09:12:35.081Z,97663.13
2023-03-05T09:15:13.736Z,97646.19
2023-03-05T09:17:42.206Z,97678.97
2023-03-05T09:20:13.210Z,97668.09
2023-03-05T09:22:41.205Z,97682.22
2023-03-05T09:25:10.015Z,97682.97
2023-03-05T09:27:37.693Z,97686.84
2023-03-05T09:30:06.464Z,97690.75
2023-03-05T09:32:33.617Z,97685.22
2023-03-05T09:35:00.696Z,97686.22
2023-03-05T09:37:29.552Z,97695.63
2023-03-05T09:39:57.707Z,97691.13
2023-03-05T09:42:44.802Z,97695.38
2023-03-05T09:45:27.320Z,97691.47
2023-03-05T09:48:15.636Z,97693.47
2023-03-05T09:50:50.764Z,97686.38
2023-03-05T09:53:30.937Z,97695.38
2023-03-05T09:56:00.554Z,97691.91
2023-03-05T09:58:38.926Z,97696.91
2023-03-05T10:01:20.705Z,97687.84
2023-03-05T10:04:09.508Z,97695.06
2023-03-05T10:06:49.226Z,97694.66
2023-03-05T10:09:39.094Z,97693.09
2023-03-05T10:12:25.440Z,97699.53
2023-03-05T10:14:52.807Z,97702.44
2023-03-05T10:17:28.556Z,97710.75
2023-03-05T10:20:26.330Z,97698.31
2023-03-05T10:23:04.795Z,97705.69
2023-03-05T10:25:58.559Z,97709.00
2023-03-05T10:28:56.014Z,97707.44
2023-03-05T10:31:41.297Z,97706.75
2023-03-05T10:34:55.260Z,97713.88
2023-03-05T10:37:58.923Z,97704.31
2023-03-05T10:40:53.139Z,97699.59
2023-03-05T10:43:35.000Z,97709.59
2023-03-05T10:46:04.740Z,97711.25
2023-03-05T10:48:43.376Z,97706.16
2023-03-05T10:51:39.726Z,97711.88
2023-03-05T10:54:26.220Z,97697.81
2023-03-05T10:57:33.197Z,97707.50
2023-03-05T11:00:06.619Z,97706.50
2023-03-05T11:02:34.717Z,97708.63
2023-03-05T11:05:05.629Z,97681.94
2023-03-05T11:07:38.346Z,97708.72
2023-03-05T11:10:17.826Z,97707.03
2023-03-05T11:12:48.211Z,97701.91
2023-03-05T11:15:15.201Z,97717.69
2023-03-05T11:17:44.823Z,97724.19
2023-03-05T11:20:32.129Z,97719.53
2023-03-05T11:23:24.160Z,97725.38
2023-03-05T11:25:55.713Z,97715.59
2023-03-05T11:28:33.739Z,97723.75
2023-03-05T11:31:16.325Z,97725.22
2023-03-05T11:34:08.560Z,97725.88
2023-03-05T11:36:44.197Z,97733.59
2023-03-05T11:39:16.934Z,97727.75
2023-03-05T11:42:10.944Z,97737.47
2023-03-05T11:44:56.044Z,97735.22
2023-03-05T11:47:29.131Z,97744.94
2023-03-05T11:50:04.796Z,97740.31
2023-03-05T11:52:39.605Z,97741.31
2023-03-05T11:55:14.935Z,97747.66
2023-03-05T11:58:00.653Z,97743.03
2023-03-05T12:00:31.569Z,97744.56
2023-03-05T12:03:00.826Z,97752.09
2023-03-05T12:05:29.128Z,97748.03
2023-03-05T12:08:01.369Z,97752.91
2023-03-05T12:10:33.847Z,97753.88
2023-03-05T12:13:15.934Z,97755.94
2023-03-05T12:16:07.291Z,97756.84
2023-03-05T12:18:37.600Z,97763.34
2023-03-05T12:21:14.442Z,97766.56
2023-03-05T12:23:52.105Z,97763.88
2023-03-05T12:26:19.185Z,97763.72
2023-03-05T12:28:56.426Z,97766.59
2023-03-05T12:31:56.252Z,97772.31
2023-03-05T12:34:41.899Z,97768.59
2023-03-05T12:37:13.493Z,97767.94
2023-03-05T12:39:40.468Z,97778.94
2023-03-05T12:42:29.188Z,97784.81
2023-03-05T12:45:17.063Z,97776.75
2023-03-05T12:47:46.224Z,97773.50
2023-03-05T12:50:45.463Z,97778.22
2023-03-05T12:53:17.180Z,97787.00
2023-03-05T12:56:13.817Z,97787.53
2023-03-05T12:58:51.300Z,97786.94
2023-03-05T13:01:33.243Z,97791.25
2023-03-05T13:04:14.860Z,97795.91
2023-03-05T13:06:41.914Z,97799.00
2023-03-05T13:09:24.697Z,97802.72
2023-03-05T13:11:56.604Z,97806.16
2023-03-05T13:14:36.827Z,97810.59
2023-03-05T13:17:44.571Z,97803.44
2023-03-05T13:20:42.918Z,97810.53
2023-03-05T13:23:09.840Z,97813.06
2023-03-05T13:25:39.311Z,97816.66
2023-03-05T13:28:16.448Z,97819.63
2023-03-05T13:31:07.125Z,97824.44
2023-03-05T13:33:38.159Z,97824.19
2023-03-05T13:36:08.682Z,97838.81
2023-03-05T13:38:46.645Z,97842.81
2023-03-05T13:41:27.411Z,97846.44
2023-03-05T13:43:57.491Z,97851.28
2023-03-05T13:46:42.151Z,97848.69
2023-03-05T13:49:23.593Z,97861.38
2023-03-05T13:51:55.452Z,97862.66
2023-03-05T13:54:25.604Z,97861.72
2023-03-05T13:56:58.889Z,97871.84
2023-03-05T13:59:29.209Z,97879.06
2023-03-05T14:01:58.535Z,97878.44
2023-03-05T14:04:28.862Z,97881.72
2023-03-05T14:07:20.957Z,97886.47
2023-03-05T14:09:52.709Z,97901.34
2023-03-05T14:12:22.833Z,97908.19
2023-03-05T14:14:50.912Z,97914.84
2023-03-05T14:17:24.573Z,97918.72
2023-03-05T14:19:52.499Z,97923.25
2023-03-05T14:22:37.706Z,97927.78
2023-03-05T14:25:06.931Z,97936.69
2023-03-05T14:27:36.366Z,97944.53
2023-03-05T14:30:05.081Z,97947.91
2023-03-05T14:32:35.228Z,97944.56
2023-03-05T14:35:08.367Z,97953.31
2023-03-05T14:37:42.323Z,97960.28
2023-03-05T14:40:12.691Z,97969.19
2023-03-05T14:42:56.932Z,97965.84
2023-03-05T14:45:26.928Z,97955.94
2023-03-05T14:47:56.055Z,97959.94
2023-03-05T14:50:32.809Z,97966.09
2023-03-05T14:53:04.427Z,97982.41
2023-03-05T14:55:33.264Z,97982.19
2023-03-05T14:58:05.077Z,97974.28
2023-03-05T15:00:32.327Z,97976.97
2023-03-05T15:02:59.410Z,98000.50
2023-03-05T15:05:26.438Z,98004.22
2023-03-05T15:07:53.612Z,97994.41
2023-03-05T15:10:23.616Z,98002.91
2023-03-05T15:12:51.553Z,98012.66
2023-03-05T15:15:20.207Z,98019.66
2023-03-05T15:17:52.080Z,98024.50
2023-03-05T15:20:23.882Z,98033.28
2023-03-05T15:22:51.000Z,98038.81
2023-03-05T15:25:19.726Z,98038.13
2023-03-05T15:27:46.816Z,98041.72
2023-03-05T15:30:30.191Z,98049.53
2023-03-05T15:32:58.439Z,98048.88
2023-03-05T15:35:25.787Z,98064.19
2023-03-05T15:37:53.146Z,98055.97
2023-03-05T15:40:21.355Z,98066.13
2023-03-05T15:42:48.980Z,98067.78
2023-03-05T15:45:16.578Z,98072.47
2023-03-05T15:47:43.691Z,98079.47
2023-03-05T15:50:12.345Z,98079.78
2023-03-05T15:52:39.348Z,98087.59
2023-03-05T15:55:06.876Z,98089.50
2023-03-05T15:57:38.477Z,98091.16
2023-03-05T16:00:07.423Z,98099.94
2023-03-05T16:02:34.903Z,98106.13
2023-03-05T16:05:05.150Z,98111.34
2023-03-05T16:07:36.719Z,98117.38
2023-03-05T16:10:05.261Z,98114.78
2023-03-05T16:12:41.237Z,98124.38
2023-03-05T16:15:11.068Z,98121.50
2023-03-05T16:17:45.133Z,98133.16
2023-03-05T16:20:13.764Z,98139.47
2023-03-05T16:22:40.750Z,98139.47
2023-03-05T16:25:08.304Z,98141.53
2023-03-05T16:27:35.580Z,98138.41
2023-03-05T16:30:03.782Z,98145.81
2023-03-05T16:32:31.777Z,98158.84
2023-03-05T16:34:59.080Z,98164.22
2023-03-05T16:37:26.635Z,98161.59
2023-03-05T16:39:53.640Z,98169.56
2023-03-05T16:42:21.286Z,98177.94
2023-03-05T16:44:49.996Z,98179.84
2023-03-05T16:47:17.190Z,98186.84
2023-03-05T16:49:44.213Z,98171.50
2023-03-05T16:52:18.678Z,98186.44
2023-03-05T16:54:47.130Z,98191.94
2023-03-05T16:57:14.990Z,98193.28
2023-03-05T16:59:43.751Z,98194.53
2023-03-05T17:02:13.390Z,98200.44
2023-03-05T17:04:40.757Z,98210.03
2023-03-05T17:07:08.947Z,98210.19
2023-03-05T17:09:36.482Z,98215.94
2023-03-05T17:12:03.955Z,98215.53
2023-03-05T17:14:31.154Z,98221.06
2023-03-05T17:16:58.207Z,98219.94
2023-03-05T17:19:25.276Z,98230.66
2023-03-05T17:21:52.774Z,98233.13
2023-03-05T17:24:22.350Z,98242.03
2023-03-05T17:26:50.282Z,98250.28
2023-03-05T17:29:19.268Z,98253.28
2023-03-05T17:32:26.531Z,98256.69
2023-03-05T17:35:20.881Z,98252.56
2023-03-05T17:38:07.938Z,98272.59
2023-03-05T17:40:36.878Z,98276.69
2023-03-05T17:43:04.290Z,98276.25
2023-03-05T17:45:32.555Z,98274.44
2023-03-05T17:47:59.759Z,98286.91
2023-03-05T17:50:26.949Z,98286.59
2023-03-05T17:52:55.426Z,98287.25
2023-03-05T17:55:24.985Z,98305.63
2023-03-05T17:57:52.852Z,98293.25
2023-03-05T18:00:29.235Z,98305.44
2023-03-05T18:02:58.332Z,98300.06
2023-03-05T18:05:26.424Z,98309.78
2023-03-05T18:07:55.775Z,98302.88
2023-03-05T18:10:28.926Z,98309.16
2023-03-05T18:12:57.003Z,98317.09
2023-03-05T18:15:25.889Z,98321.72
2023-03-05T18:17:53.741Z,98328.69
2023-03-05T18:20:36.400Z,98324.03
2023-03-05T18:23:05.441Z,98322.75
2023-03-05T18:25:33.060Z,98337.56
2023-03-05T18:28:02.798Z,98332.44
2023-03-05T18:30:30.705Z,98348.13
2023-03-05T18:32:58.548Z,98356.63
2023-03-05T18:35:26.218Z,98357.88
2023-03-05T18:37:53.473Z,98341.25
2023-03-05T18:40:24.088Z,98356.13
2023-03-05T18:42:51.954Z,98361.03
2023-03-05T18:45:21.099Z,98349.41
2023-03-05T18:47:49.254Z,98371.09
2023-03-05T18:50:18.934Z,98380.66
2023-03-05T18:52:46.572Z,98371.59
2023-03-05T18:55:25.423Z,98382.31
2023-03-05T18:57:52.831Z,98382.31
2023-03-05T19:00:26.408Z,98376.41
2023-03-05T19:02:54.783Z,98396.13
2023-03-05T19:05:22.380Z,98394.22
2023-03-05T19:07:49.930Z,98399.44
2023-03-05T19:10:17.973Z,98398.63
2023-03-05T19:13:36.008Z,98405.34
2023-03-05T19:16:13.151Z,98417.66
2023-03-05T19:19:15.034Z,98419.56
2023-03-05T19:21:44.113Z,98412.53
2023-03-05T19:24:11.621Z,98426.53
2023-03-05T19:26:39.674Z,98433.25
2023-03-05T19:29:07.862Z,98431.50
2023-03-05T19:31:35.511Z,98445.09
2023-03-05T19:34:03.554Z,98444.13
2023-03-05T19:36:31.697Z,98440.44
2023-03-05T19:38:59.041Z,98450.34
2023-03-05T19:41:27.987Z,98448.56
2023-03-05T19:43:56.065Z,98456.84
2023-03-05T19:46:23.816Z,98455.06
2023-03-05T19:48:51.184Z,98453.41
2023-03-05T19:51:21.310Z,98462.97
2023-03-05T19:53:49.329Z,98456.25
2023-03-05T19:56:17.771Z,98467.50
2023-03-05T19:58:45.986Z,98465.38
2023-03-05T20:01:19.555Z,98478.97
2023-03-05T20:03:51.147Z,98470.72
2023-03-05T20:06:19.549Z,98477.59
2023-03-05T20:08:47.473Z,98480.31
2023-03-05T20:11:17.281Z,98488.56
2023-03-05T20:13:44.603Z,98494.47
2023-03-05T20:16:16.202Z,98492.00
2023-03-05T20:18:44.088Z,98498.03
2023-03-05T20:21:11.385Z,98497.78
2023-03-05T20:23:41.441Z,98506.28
2023-03-05T20:26:08.384Z,98506.16
2023-03-05T20:28:35.755Z,98507.22
2023-03-05T20:31:03.162Z,98513.84
2023-03-05T20:33:30.253Z,98508.75
2023-03-05T20:35:57.310Z,98515.47
2023-03-05T20:38:25.769Z,98515.63
2023-03-05T20:41:08.211Z,98520.69
2023-03-05T20:43:38.335Z,98526.53
2023-03-05T20:46:05.484Z,98540.22
2023-03-05T20:48:35.388Z,98538.84
2023-03-05T20:51:17.333Z,98543.34
2023-03-05T20:53:45.058Z,98549.38
2023-03-05T20:56:12.188Z,98547.97
2023-03-05T20:58:39.270Z,98554.84
2023-03-05T21:01:15.887Z,98549.03
2023-03-05T21:03:42.984Z,98550.94
2023-03-05T21:06:11.135Z,98562.63
2023-03-05T21:08:38.166Z,98568.78
2023-03-05T21:11:07.600Z,98574.69
2023-03-05T21:13:35.222Z,98570.56
2023-03-05T21:16:06.746Z,98577.28
2023-03-05T21:18:39.120Z,98589.13
2023-03-05T21:21:06.802Z,98589.38
2023-03-05T21:23:34.431Z,98583.22
2023-03-05T21:26:01.552Z,98600.94
2023-03-05T21:28:29.650Z,98594.09
2023-03-05T21:30:56.822Z,98600.94
2023-03-05T21:33:26.793Z,98597.38
2023-03-05T21:35:54.685Z,98599.03
2023-03-05T21:38:23.325Z,98605.19
2023-03-05T21:40:51.893Z,98611.81
2023-03-05T21:43:21.858Z,98604.81
2023-03-05T21:45:51.084Z,98611.44
2023-03-05T21:48:18.277Z,98610.63
2023-03-05T21:50:47.797Z,98614.28
2023-03-05T21:53:16.761Z,98625.28
2023-03-05T21:56:25.484Z,98629.66
2023-03-05T21:58:53.562Z,98630.47
2023-03-05T22:01:21.416Z,98635.22
2023-03-05T22:03:49.481Z,98641.25
2023-03-05T22:06:18.067Z,98638.34
2023-03-05T22:08:45.304Z,98652.44
2023-03-05T22:11:15.346Z,98652.75
2023-03-05T22:13:42.652Z,98656.56
2023-03-05T22:16:10.224Z,98657.50
2023-03-05T22:18:37.632Z,98670.78
2023-03-05T22:21:05.327Z,98669.25
2023-03-05T22:23:36.999Z,98669.72
2023-03-05T22:26:08.001Z,98671.84
2023-03-05T22:28:36.665Z,98679.66
2023-03-05T22:31:03.870Z,98680.59
2023-03-05T22:33:31.599Z,98683.47
2023-03-05T22:35:58.777Z,98682.00
2023-03-05T22:38:26.391Z,98681.78
2023-03-05T22:40:53.702Z,98684.59
2023-03-05T22:43:21.185Z,98694.22
2023-03-05T22:45:48.346Z,98698.09
2023-03-05T22:48:15.801Z,98695.88
2023-03-05T22:50:44.482Z,98703.97
2023-03-05T22:53:12.703Z,98700.34
2023-03-05T22:55:43.147Z,98707.44
2023-03-05T22:58:10.341Z,98705.28
2023-03-05T23:00:37.688Z,98702.69
2023-03-05T23:03:06.535Z,98712.00
2023-03-05T23:05:34.897Z,98707.75
2023-03-05T23:08:01.889Z,98720.75
2023-03-05T23:10:29.568Z,98718.28
2023-03-05T23:12:58.657Z,98721.72
2023-03-05T23:15:31.734Z,98728.44
2023-03-05T23:18:02.063Z,98727.47
2023-03-05T23:20:32.173Z,98729.84
2023-03-05T23:22:59.879Z,98730.69
2023-03-05T23:25:30.389Z,98738.84
2023-03-05T23:28:01.098Z,98740.53
2023-03-05T23:30:29.239Z,98746.31
2023-03-05T23:32:56.169Z,98752.00
2023-03-05T23:35:52.048Z,98746.44
2023-03-05T23:38:19.962Z,98750.81
2023-03-05T23:40:54.104Z,98749.63
2023-03-05T23:43:24.744Z,98749.88
2023-03-05T23:45:56.846Z,98758.97
2023-03-05T23:48:25.442Z,98761.34
2023-03-05T23:50:53.107Z,98763.00
2023-03-05T23:53:22.990Z,98758.88
2023-03-05T23:55:51.158Z,98764.56
2023-03-05T23:58:20.439Z,98766.22
